sensor_id;sensor_type;location;lat;lon;timestamp;P1;durP1;ratioP1;P2;durP2;ratioP2
19671;SDS011;9983;51.114;13.788;2022-09-09T00:03:18;4.28;;;2.38;;
19671;SDS011;9983;51.114;13.788;2022-09-09T00:14:06;3.85;;;1.92;;
19671;SDS011;9983;51.114;13.788;2022-09-09T00:19:28;2.58;;;2.30;;
19671;SDS011;9983;51.114;13.788;2022-09-09T00:24:49;2.15;;;2.00;;
19671;SDS011;9983;51.114;13.788;2022-09-09T00:29:57;6.07;;;2.50;;
19671;SDS011;9983;51.114;13.788;2022-09-09T00:35:22;4.93;;;2.17;;
19671;SDS011;9983;51.114;13.788;2022-09-09T00:40:30;5.05;;;2.28;;
19671;SDS011;9983;51.114;13.788;2022-09-09T00:45:42;4.55;;;2.25;;
19671;SDS011;9983;51.114;13.788;2022-09-09T00:50:49;5.72;;;2.00;;
19671;SDS011;9983;51.114;13.788;2022-09-09T01:01:11;5.05;;;1.90;;
19671;SDS011;9983;51.114;13.788;2022-09-09T01:11:26;9.48;;;2.33;;
19671;SDS011;9983;51.114;13.788;2022-09-09T01:16:36;4.28;;;2.30;;
19671;SDS011;9983;51.114;13.788;2022-09-09T01:21:42;5.82;;;2.30;;
19671;SDS011;9983;51.114;13.788;2022-09-09T01:26:51;5.22;;;2.30;;
19671;SDS011;9983;51.114;13.788;2022-09-09T01:37:02;3.67;;;2.17;;
19671;SDS011;9983;51.114;13.788;2022-09-09T01:42:06;2.33;;;1.88;;
19671;SDS011;9983;51.114;13.788;2022-09-09T01:47:08;3.10;;;2.20;;
19671;SDS011;9983;51.114;13.788;2022-09-09T01:52:09;4.15;;;2.08;;
19671;SDS011;9983;51.114;13.788;2022-09-09T02:02:53;9.30;;;2.15;;
19671;SDS011;9983;51.114;13.788;2022-09-09T02:08:05;7.47;;;2.38;;
19671;SDS011;9983;51.114;13.788;2022-09-09T02:13:10;5.20;;;2.25;;
19671;SDS011;9983;51.114;13.788;2022-09-09T02:18:13;4.70;;;2.10;;
19671;SDS011;9983;51.114;13.788;2022-09-09T02:23:21;6.28;;;2.10;;
19671;SDS011;9983;51.114;13.788;2022-09-09T02:28:21;3.35;;;2.20;;
19671;SDS011;9983;51.114;13.788;2022-09-09T02:33:27;5.50;;;2.13;;
19671;SDS011;9983;51.114;13.788;2022-09-09T02:38:34;8.65;;;2.20;;
19671;SDS011;9983;51.114;13.788;2022-09-09T02:43:39;4.05;;;2.30;;
19671;SDS011;9983;51.114;13.788;2022-09-09T02:49:22;8.68;;;2.50;;
19671;SDS011;9983;51.114;13.788;2022-09-09T02:54:10;2.65;;;2.25;;
19671;SDS011;9983;51.114;13.788;2022-09-09T02:59:28;9.15;;;2.50;;
19671;SDS011;9983;51.114;13.788;2022-09-09T03:04:30;3.63;;;1.90;;
19671;SDS011;9983;51.114;13.788;2022-09-09T03:09:31;6.47;;;2.20;;
19671;SDS011;9983;51.114;13.788;2022-09-09T03:14:32;9.82;;;2.00;;
19671;SDS011;9983;51.114;13.788;2022-09-09T03:19:32;7.88;;;2.10;;
19671;SDS011;9983;51.114;13.788;2022-09-09T03:24:36;5.63;;;2.10;;
19671;SDS011;9983;51.114;13.788;2022-09-09T03:29:36;6.57;;;2.00;;
19671;SDS011;9983;51.114;13.788;2022-09-09T03:34:36;4.20;;;1.88;;
19671;SDS011;9983;51.114;13.788;2022-09-09T03:39:38;5.82;;;2.13;;
19671;SDS011;9983;51.114;13.788;2022-09-09T03:44:39;7.63;;;2.38;;
19671;SDS011;9983;51.114;13.788;2022-09-09T03:49:41;4.63;;;1.70;;
19671;SDS011;9983;51.114;13.788;2022-09-09T03:54:42;4.47;;;1.90;;
19671;SDS011;9983;51.114;13.788;2022-09-09T03:59:42;4.75;;;2.03;;
19671;SDS011;9983;51.114;13.788;2022-09-09T04:04:43;3.45;;;1.80;;
19671;SDS011;9983;51.114;13.788;2022-09-09T04:09:43;4.18;;;1.80;;
19671;SDS011;9983;51.114;13.788;2022-09-09T04:14:43;3.67;;;1.80;;
19671;SDS011;9983;51.114;13.788;2022-09-09T04:19:44;6.60;;;2.35;;
19671;SDS011;9983;51.114;13.788;2022-09-09T04:24:44;5.20;;;2.60;;
19671;SDS011;9983;51.114;13.788;2022-09-09T04:29:44;10.85;;;2.05;;
19671;SDS011;9983;51.114;13.788;2022-09-09T04:34:44;5.07;;;2.20;;
19671;SDS011;9983;51.114;13.788;2022-09-09T04:39:45;5.68;;;2.20;;
19671;SDS011;9983;51.114;13.788;2022-09-09T04:44:45;6.63;;;1.90;;
19671;SDS011;9983;51.114;13.788;2022-09-09T04:49:45;6.70;;;1.80;;
19671;SDS011;9983;51.114;13.788;2022-09-09T04:54:45;3.88;;;1.70;;
19671;SDS011;9983;51.114;13.788;2022-09-09T04:59:46;5.80;;;1.60;;
19671;SDS011;9983;51.114;13.788;2022-09-09T05:04:47;6.82;;;2.55;;
19671;SDS011;9983;51.114;13.788;2022-09-09T05:09:49;4.95;;;1.58;;
19671;SDS011;9983;51.114;13.788;2022-09-09T05:14:49;5.37;;;1.63;;
19671;SDS011;9983;51.114;13.788;2022-09-09T05:19:50;2.85;;;1.90;;
19671;SDS011;9983;51.114;13.788;2022-09-09T05:24:50;1.70;;;1.60;;
19671;SDS011;9983;51.114;13.788;2022-09-09T05:29:50;1.58;;;1.42;;
19671;SDS011;9983;51.114;13.788;2022-09-09T05:34:52;4.88;;;1.70;;
19671;SDS011;9983;51.114;13.788;2022-09-09T05:39:52;1.95;;;1.40;;
19671;SDS011;9983;51.114;13.788;2022-09-09T05:44:53;2.33;;;1.35;;
19671;SDS011;9983;51.114;13.788;2022-09-09T05:49:54;7.65;;;2.17;;
19671;SDS011;9983;51.114;13.788;2022-09-09T05:54:55;4.38;;;1.70;;
19671;SDS011;9983;51.114;13.788;2022-09-09T05:59:56;6.70;;;1.88;;
19671;SDS011;9983;51.114;13.788;2022-09-09T06:04:57;1.98;;;1.58;;
19671;SDS011;9983;51.114;13.788;2022-09-09T06:09:57;3.35;;;1.55;;
19671;SDS011;9983;51.114;13.788;2022-09-09T06:14:58;6.65;;;1.40;;
19671;SDS011;9983;51.114;13.788;2022-09-09T06:19:59;4.45;;;1.60;;
19671;SDS011;9983;51.114;13.788;2022-09-09T06:24:59;4.28;;;1.60;;
19671;SDS011;9983;51.114;13.788;2022-09-09T06:30:01;6.40;;;2.78;;
19671;SDS011;9983;51.114;13.788;2022-09-09T06:35:02;5.35;;;1.85;;
19671;SDS011;9983;51.114;13.788;2022-09-09T06:40:03;2.58;;;1.50;;
19671;SDS011;9983;51.114;13.788;2022-09-09T06:45:03;2.20;;;1.50;;
19671;SDS011;9983;51.114;13.788;2022-09-09T06:50:04;3.30;;;1.70;;
19671;SDS011;9983;51.114;13.788;2022-09-09T06:55:07;3.08;;;1.40;;
19671;SDS011;9983;51.114;13.788;2022-09-09T07:00:07;4.85;;;1.40;;
19671;SDS011;9983;51.114;13.788;2022-09-09T07:05:08;5.15;;;1.67;;
19671;SDS011;9983;51.114;13.788;2022-09-09T07:10:08;1.70;;;1.20;;
19671;SDS011;9983;51.114;13.788;2022-09-09T07:15:09;2.20;;;1.60;;
19671;SDS011;9983;51.114;13.788;2022-09-09T07:20:09;3.80;;;1.50;;
19671;SDS011;9983;51.114;13.788;2022-09-09T07:25:10;2.80;;;1.20;;
19671;SDS011;9983;51.114;13.788;2022-09-09T07:30:11;2.67;;;1.30;;
19671;SDS011;9983;51.114;13.788;2022-09-09T07:35:11;2.00;;;1.33;;
19671;SDS011;9983;51.114;13.788;2022-09-09T07:40:12;4.13;;;1.38;;
19671;SDS011;9983;51.114;13.788;2022-09-09T07:45:12;2.22;;;0.90;;
19671;SDS011;9983;51.114;13.788;2022-09-09T07:50:14;3.33;;;1.13;;
19671;SDS011;9983;51.114;13.788;2022-09-09T07:55:15;2.65;;;1.20;;
19671;SDS011;9983;51.114;13.788;2022-09-09T08:00:15;2.17;;;1.03;;
19671;SDS011;9983;51.114;13.788;2022-09-09T08:05:15;3.28;;;1.13;;
19671;SDS011;9983;51.114;13.788;2022-09-09T08:10:16;2.72;;;0.95;;
19671;SDS011;9983;51.114;13.788;2022-09-09T08:15:17;3.80;;;1.05;;
19671;SDS011;9983;51.114;13.788;2022-09-09T08:20:18;1.45;;;0.95;;
19671;SDS011;9983;51.114;13.788;2022-09-09T08:25:18;2.58;;;1.02;;
19671;SDS011;9983;51.114;13.788;2022-09-09T08:30:18;0.70;;;0.63;;
19671;SDS011;9983;51.114;13.788;2022-09-09T08:35:19;3.08;;;1.00;;
19671;SDS011;9983;51.114;13.788;2022-09-09T08:40:22;2.88;;;1.27;;
19671;SDS011;9983;51.114;13.788;2022-09-09T08:45:30;3.88;;;1.20;;
19671;SDS011;9983;51.114;13.788;2022-09-09T08:50:36;1.92;;;1.13;;
19671;SDS011;9983;51.114;13.788;2022-09-09T08:55:48;3.05;;;1.20;;
19671;SDS011;9983;51.114;13.788;2022-09-09T09:00:55;3.63;;;1.15;;
19671;SDS011;9983;51.114;13.788;2022-09-09T09:06:21;2.75;;;1.10;;
19671;SDS011;9983;51.114;13.788;2022-09-09T09:11:40;1.90;;;1.33;;
19671;SDS011;9983;51.114;13.788;2022-09-09T09:16:50;1.55;;;1.30;;
19671;SDS011;9983;51.114;13.788;2022-09-09T09:21:56;2.05;;;1.38;;
19671;SDS011;9983;51.114;13.788;2022-09-09T09:27:07;2.55;;;1.30;;
19671;SDS011;9983;51.114;13.788;2022-09-09T09:32:14;3.90;;;1.60;;
19671;SDS011;9983;51.114;13.788;2022-09-09T09:37:21;6.32;;;2.72;;
19671;SDS011;9983;51.114;13.788;2022-09-09T09:42:28;2.70;;;1.40;;
19671;SDS011;9983;51.114;13.788;2022-09-09T09:47:28;3.00;;;1.60;;
19671;SDS011;9983;51.114;13.788;2022-09-09T09:52:29;4.43;;;1.85;;
19671;SDS011;9983;51.114;13.788;2022-09-09T09:57:32;3.45;;;1.45;;
19671;SDS011;9983;51.114;13.788;2022-09-09T10:02:37;2.72;;;1.30;;
19671;SDS011;9983;51.114;13.788;2022-09-09T10:07:38;3.05;;;1.60;;
19671;SDS011;9983;51.114;13.788;2022-09-09T10:18:06;2.58;;;1.38;;
19671;SDS011;9983;51.114;13.788;2022-09-09T10:29:05;3.40;;;1.63;;
19671;SDS011;9983;51.114;13.788;2022-09-09T10:39:40;2.67;;;1.30;;
19671;SDS011;9983;51.114;13.788;2022-09-09T10:50:36;3.97;;;1.10;;
19671;SDS011;9983;51.114;13.788;2022-09-09T10:55:48;2.17;;;1.25;;
19671;SDS011;9983;51.114;13.788;2022-09-09T11:00:54;2.30;;;1.00;;
19671;SDS011;9983;51.114;13.788;2022-09-09T11:16:43;2.10;;;1.08;;
19671;SDS011;9983;51.114;13.788;2022-09-09T11:21:50;3.13;;;1.02;;
19671;SDS011;9983;51.114;13.788;2022-09-09T11:26:55;3.50;;;1.15;;
19671;SDS011;9983;51.114;13.788;2022-09-09T11:37:44;2.17;;;1.35;;
19671;SDS011;9983;51.114;13.788;2022-09-09T11:43:12;3.72;;;1.10;;
19671;SDS011;9983;51.114;13.788;2022-09-09T11:53:35;3.90;;;1.38;;
19671;SDS011;9983;51.114;13.788;2022-09-09T11:58:56;3.95;;;1.50;;
19671;SDS011;9983;51.114;13.788;2022-09-09T12:04:01;1.95;;;1.30;;
19671;SDS011;9983;51.114;13.788;2022-09-09T12:09:22;3.13;;;1.63;;
19671;SDS011;9983;51.114;13.788;2022-09-09T12:20:04;2.75;;;1.10;;
19671;SDS011;9983;51.114;13.788;2022-09-09T12:36:18;2.42;;;1.30;;
19671;SDS011;9983;51.114;13.788;2022-09-09T12:41:25;5.30;;;1.30;;
19671;SDS011;9983;51.114;13.788;2022-09-09T12:46:31;2.08;;;1.33;;
19671;SDS011;9983;51.114;13.788;2022-09-09T12:51:36;2.10;;;1.20;;
19671;SDS011;9983;51.114;13.788;2022-09-09T12:56:37;1.48;;;1.25;;
19671;SDS011;9983;51.114;13.788;2022-09-09T13:01:37;3.47;;;1.48;;
19671;SDS011;9983;51.114;13.788;2022-09-09T13:06:38;3.35;;;1.30;;
19671;SDS011;9983;51.114;13.788;2022-09-09T13:11:39;2.13;;;1.42;;
19671;SDS011;9983;51.114;13.788;2022-09-09T13:16:56;4.30;;;1.60;;
19671;SDS011;9983;51.114;13.788;2022-09-09T13:21:59;2.35;;;1.35;;
19671;SDS011;9983;51.114;13.788;2022-09-09T13:27:03;2.72;;;1.13;;
19671;SDS011;9983;51.114;13.788;2022-09-09T13:32:06;2.50;;;1.35;;
19671;SDS011;9983;51.114;13.788;2022-09-09T13:37:23;4.30;;;1.33;;
19671;SDS011;9983;51.114;13.788;2022-09-09T13:42:32;2.83;;;1.10;;
19671;SDS011;9983;51.114;13.788;2022-09-09T13:47:39;2.03;;;0.98;;
19671;SDS011;9983;51.114;13.788;2022-09-09T13:52:39;1.33;;;0.93;;
19671;SDS011;9983;51.114;13.788;2022-09-09T13:57:49;2.05;;;1.25;;
19671;SDS011;9983;51.114;13.788;2022-09-09T14:03:02;2.75;;;0.98;;
19671;SDS011;9983;51.114;13.788;2022-09-09T14:08:03;4.18;;;1.27;;
19671;SDS011;9983;51.114;13.788;2022-09-09T14:13:05;4.50;;;1.08;;
19671;SDS011;9983;51.114;13.788;2022-09-09T14:18:05;1.45;;;1.02;;
19671;SDS011;9983;51.114;13.788;2022-09-09T14:23:05;2.50;;;1.27;;
19671;SDS011;9983;51.114;13.788;2022-09-09T14:28:10;3.40;;;1.02;;
19671;SDS011;9983;51.114;13.788;2022-09-09T14:33:12;1.50;;;1.10;;
19671;SDS011;9983;51.114;13.788;2022-09-09T14:38:14;1.38;;;1.00;;
19671;SDS011;9983;51.114;13.788;2022-09-09T14:43:14;2.95;;;1.30;;
19671;SDS011;9983;51.114;13.788;2022-09-09T14:48:14;4.00;;;1.77;;
19671;SDS011;9983;51.114;13.788;2022-09-09T14:53:16;4.28;;;1.70;;
19671;SDS011;9983;51.114;13.788;2022-09-09T14:58:16;3.83;;;1.75;;
19671;SDS011;9983;51.114;13.788;2022-09-09T15:03:17;1.30;;;1.10;;
19671;SDS011;9983;51.114;13.788;2022-09-09T15:08:17;1.80;;;1.38;;
19671;SDS011;9983;51.114;13.788;2022-09-09T15:13:17;3.13;;;1.50;;
19671;SDS011;9983;51.114;13.788;2022-09-09T15:18:17;1.23;;;1.13;;
19671;SDS011;9983;51.114;13.788;2022-09-09T15:23:17;2.72;;;1.27;;
19671;SDS011;9983;51.114;13.788;2022-09-09T15:28:18;1.55;;;1.10;;
19671;SDS011;9983;51.114;13.788;2022-09-09T15:33:19;3.08;;;1.27;;
19671;SDS011;9983;51.114;13.788;2022-09-09T15:38:20;2.53;;;1.40;;
19671;SDS011;9983;51.114;13.788;2022-09-09T15:43:21;1.83;;;1.55;;
19671;SDS011;9983;51.114;13.788;2022-09-09T15:48:25;5.20;;;1.40;;
19671;SDS011;9983;51.114;13.788;2022-09-09T15:53:31;3.45;;;1.48;;
19671;SDS011;9983;51.114;13.788;2022-09-09T15:58:34;2.60;;;1.27;;
19671;SDS011;9983;51.114;13.788;2022-09-09T16:03:42;2.30;;;1.40;;
19671;SDS011;9983;51.114;13.788;2022-09-09T16:08:45;1.60;;;1.02;;
19671;SDS011;9983;51.114;13.788;2022-09-09T16:13:47;2.60;;;1.40;;
19671;SDS011;9983;51.114;13.788;2022-09-09T16:18:50;4.00;;;1.02;;
19671;SDS011;9983;51.114;13.788;2022-09-09T16:23:52;1.17;;;1.13;;
19671;SDS011;9983;51.114;13.788;2022-09-09T16:28:56;1.45;;;1.13;;
19671;SDS011;9983;51.114;13.788;2022-09-09T16:33:58;2.65;;;1.20;;
19671;SDS011;9983;51.114;13.788;2022-09-09T16:38:59;5.07;;;1.33;;
19671;SDS011;9983;51.114;13.788;2022-09-09T16:44:05;2.13;;;1.05;;
19671;SDS011;9983;51.114;13.788;2022-09-09T16:49:10;2.90;;;1.38;;
19671;SDS011;9983;51.114;13.788;2022-09-09T16:54:12;3.40;;;1.50;;
19671;SDS011;9983;51.114;13.788;2022-09-09T16:59:14;3.97;;;1.27;;
19671;SDS011;9983;51.114;13.788;2022-09-09T17:04:17;2.30;;;1.20;;
19671;SDS011;9983;51.114;13.788;2022-09-09T17:09:20;3.88;;;1.33;;
19671;SDS011;9983;51.114;13.788;2022-09-09T17:14:22;2.70;;;1.27;;
19671;SDS011;9983;51.114;13.788;2022-09-09T17:19:23;2.67;;;1.20;;
19671;SDS011;9983;51.114;13.788;2022-09-09T17:24:24;5.32;;;1.70;;
19671;SDS011;9983;51.114;13.788;2022-09-09T17:29:26;4.28;;;1.70;;
19671;SDS011;9983;51.114;13.788;2022-09-09T17:34:26;4.53;;;1.48;;
19671;SDS011;9983;51.114;13.788;2022-09-09T17:39:27;6.70;;;2.00;;
19671;SDS011;9983;51.114;13.788;2022-09-09T17:44:27;4.28;;;1.35;;
19671;SDS011;9983;51.114;13.788;2022-09-09T17:49:28;4.70;;;1.33;;
19671;SDS011;9983;51.114;13.788;2022-09-09T17:54:29;6.00;;;1.40;;
19671;SDS011;9983;51.114;13.788;2022-09-09T17:59:29;4.85;;;1.67;;
19671;SDS011;9983;51.114;13.788;2022-09-09T18:04:30;4.00;;;1.55;;
19671;SDS011;9983;51.114;13.788;2022-09-09T18:09:30;3.55;;;1.65;;
19671;SDS011;9983;51.114;13.788;2022-09-09T18:14:31;4.68;;;1.73;;
19671;SDS011;9983;51.114;13.788;2022-09-09T18:19:32;5.10;;;1.65;;
19671;SDS011;9983;51.114;13.788;2022-09-09T18:24:32;6.30;;;1.65;;
19671;SDS011;9983;51.114;13.788;2022-09-09T18:29:32;3.78;;;1.52;;
19671;SDS011;9983;51.114;13.788;2022-09-09T18:34:33;3.45;;;1.58;;
19671;SDS011;9983;51.114;13.788;2022-09-09T18:39:33;5.85;;;1.80;;
19671;SDS011;9983;51.114;13.788;2022-09-09T18:44:33;6.07;;;2.05;;
19671;SDS011;9983;51.114;13.788;2022-09-09T18:49:34;3.97;;;1.80;;
19671;SDS011;9983;51.114;13.788;2022-09-09T18:54:34;5.10;;;1.88;;
19671;SDS011;9983;51.114;13.788;2022-09-09T18:59:34;3.13;;;2.30;;
19671;SDS011;9983;51.114;13.788;2022-09-09T19:04:35;3.57;;;2.00;;
19671;SDS011;9983;51.114;13.788;2022-09-09T19:09:35;5.22;;;1.67;;
19671;SDS011;9983;51.114;13.788;2022-09-09T19:14:35;5.00;;;1.85;;
19671;SDS011;9983;51.114;13.788;2022-09-09T19:19:36;4.55;;;1.90;;
19671;SDS011;9983;51.114;13.788;2022-09-09T19:24:37;4.73;;;1.73;;
19671;SDS011;9983;51.114;13.788;2022-09-09T19:29:37;5.25;;;1.85;;
19671;SDS011;9983;51.114;13.788;2022-09-09T19:34:43;3.53;;;1.75;;
19671;SDS011;9983;51.114;13.788;2022-09-09T19:39:43;7.10;;;2.30;;
19671;SDS011;9983;51.114;13.788;2022-09-09T19:44:44;7.72;;;1.75;;
19671;SDS011;9983;51.114;13.788;2022-09-09T19:49:45;7.03;;;1.90;;
19671;SDS011;9983;51.114;13.788;2022-09-09T19:54:46;5.32;;;2.30;;
19671;SDS011;9983;51.114;13.788;2022-09-09T19:59:46;6.88;;;2.30;;
19671;SDS011;9983;51.114;13.788;2022-09-09T20:04:47;4.90;;;2.00;;
19671;SDS011;9983;51.114;13.788;2022-09-09T20:09:47;4.55;;;1.95;;
19671;SDS011;9983;51.114;13.788;2022-09-09T20:14:48;5.70;;;1.95;;
19671;SDS011;9983;51.114;13.788;2022-09-09T20:19:48;7.18;;;2.53;;
19671;SDS011;9983;51.114;13.788;2022-09-09T20:24:48;3.25;;;2.10;;
19671;SDS011;9983;51.114;13.788;2022-09-09T20:29:49;7.80;;;1.92;;
19671;SDS011;9983;51.114;13.788;2022-09-09T20:34:50;5.18;;;2.03;;
19671;SDS011;9983;51.114;13.788;2022-09-09T20:39:50;5.53;;;2.05;;
19671;SDS011;9983;51.114;13.788;2022-09-09T20:44:51;2.38;;;2.10;;
19671;SDS011;9983;51.114;13.788;2022-09-09T20:49:51;6.93;;;1.95;;
19671;SDS011;9983;51.114;13.788;2022-09-09T20:54:52;7.67;;;2.30;;
19671;SDS011;9983;51.114;13.788;2022-09-09T20:59:53;7.80;;;1.90;;
19671;SDS011;9983;51.114;13.788;2022-09-09T21:04:53;5.25;;;1.83;;
19671;SDS011;9983;51.114;13.788;2022-09-09T21:09:53;4.63;;;1.90;;
19671;SDS011;9983;51.114;13.788;2022-09-09T21:14:56;3.20;;;1.73;;
19671;SDS011;9983;51.114;13.788;2022-09-09T21:19:56;3.78;;;1.77;;
19671;SDS011;9983;51.114;13.788;2022-09-09T21:24:56;4.75;;;2.20;;
19671;SDS011;9983;51.114;13.788;2022-09-09T21:29:57;8.73;;;2.00;;
19671;SDS011;9983;51.114;13.788;2022-09-09T21:34:57;8.93;;;1.92;;
19671;SDS011;9983;51.114;13.788;2022-09-09T21:39:58;4.30;;;2.00;;
19671;SDS011;9983;51.114;13.788;2022-09-09T21:44:58;5.65;;;2.30;;
19671;SDS011;9983;51.114;13.788;2022-09-09T21:49:58;2.67;;;1.95;;
19671;SDS011;9983;51.114;13.788;2022-09-09T21:55:00;4.07;;;1.77;;
19671;SDS011;9983;51.114;13.788;2022-09-09T22:00:00;3.17;;;1.70;;
19671;SDS011;9983;51.114;13.788;2022-09-09T22:05:01;6.28;;;2.20;;
19671;SDS011;9983;51.114;13.788;2022-09-09T22:10:01;6.40;;;2.42;;
19671;SDS011;9983;51.114;13.788;2022-09-09T22:15:02;7.20;;;2.05;;
19671;SDS011;9983;51.114;13.788;2022-09-09T22:20:03;6.40;;;2.08;;
19671;SDS011;9983;51.114;13.788;2022-09-09T22:25:05;6.60;;;2.33;;
19671;SDS011;9983;51.114;13.788;2022-09-09T22:30:06;6.25;;;2.42;;
19671;SDS011;9983;51.114;13.788;2022-09-09T22:35:07;5.85;;;2.13;;
19671;SDS011;9983;51.114;13.788;2022-09-09T22:40:08;3.58;;;2.20;;
19671;SDS011;9983;51.114;13.788;2022-09-09T22:45:09;3.33;;;2.08;;
19671;SDS011;9983;51.114;13.788;2022-09-09T22:50:09;5.10;;;2.40;;
19671;SDS011;9983;51.114;13.788;2022-09-09T22:55:10;6.03;;;2.10;;
19671;SDS011;9983;51.114;13.788;2022-09-09T23:00:11;3.63;;;1.90;;
19671;SDS011;9983;51.114;13.788;2022-09-09T23:05:12;2.83;;;1.83;;
19671;SDS011;9983;51.114;13.788;2022-09-09T23:10:13;3.15;;;1.90;;
19671;SDS011;9983;51.114;13.788;2022-09-09T23:15:13;5.90;;;2.00;;
19671;SDS011;9983;51.114;13.788;2022-09-09T23:20:14;4.32;;;1.70;;
19671;SDS011;9983;51.114;13.788;2022-09-09T23:25:14;5.53;;;1.75;;
19671;SDS011;9983;51.114;13.788;2022-09-09T23:30:14;5.30;;;2.30;;
19671;SDS011;9983;51.114;13.788;2022-09-09T23:35:14;7.00;;;2.20;;
19671;SDS011;9983;51.114;13.788;2022-09-09T23:40:15;4.03;;;1.95;;
19671;SDS011;9983;51.114;13.788;2022-09-09T23:45:15;2.90;;;2.15;;
19671;SDS011;9983;51.114;13.788;2022-09-09T23:50:16;3.72;;;1.95;;
19671;SDS011;9983;51.114;13.788;2022-09-09T23:55:16;10.57;;;2.83;;
